Time;durP1;ratioP1;P1;durP2;ratioP2;P2;SDS_P1;SDS_P2;PMS_P1;PMS_P2;Temp;Humidity;BMP_temperature;BMP_pressure;BME280_temperature;BME280_humidity;BME280_pressure;Samples;Min_cycle;Max_cycle;Signal;HPM_P1;HPM_P2
2022/12/14 00:00:44;;;;;;;40.03;18.80;;;-2.20;99.90;;;;;;5091825;28;20642;-87
2022/12/14 00:03:10;;;;;;;29.40;15.48;;;-2.20;99.90;;;;;;5091583;28;20040;-88
2022/12/14 00:05:36;;;;;;;30.70;16.30;;;-2.30;99.90;;;;;;5092054;28;20040;-87
2022/12/14 00:08:02;;;;;;;30.98;14.25;;;-2.30;99.90;;;;;;5091975;28;20044;-87
2022/12/14 00:10:28;;;;;;;30.20;15.43;;;-2.30;99.90;;;;;;5092193;28;20123;-87
2022/12/14 00:12:53;;;;;;;26.50;12.38;;;-2.30;99.90;;;;;;5091817;28;20405;-87
2022/12/14 00:15:19;;;;;;;30.63;14.45;;;-2.30;99.90;;;;;;5075205;28;20036;-87
2022/12/14 00:17:44;;;;;;;32.45;15.98;;;-2.30;99.90;;;;;;5092217;28;20036;-87
2022/12/14 00:20:10;;;;;;;33.30;15.20;;;-2.30;99.90;;;;;;5091998;28;20723;-87
2022/12/14 00:22:36;;;;;;;33.75;15.80;;;-2.30;99.90;;;;;;5074960;28;20041;-87
2022/12/14 00:25:01;;;;;;;27.10;14.25;;;-2.30;99.90;;;;;;5091867;28;20397;-87
2022/12/14 00:27:27;;;;;;;32.22;16.25;;;-2.30;99.90;;;;;;5091863;28;20455;-87
2022/12/14 00:29:53;;;;;;;30.10;16.80;;;-2.40;99.90;;;;;;5074662;28;20040;-87
2022/12/14 00:32:19;;;;;;;38.28;19.85;;;-2.40;99.90;;;;;;5074758;28;20036;-87
2022/12/14 00:34:44;;;;;;;28.67;14.70;;;-2.40;99.90;;;;;;5074700;28;20486;-87
2022/12/14 00:37:10;;;;;;;32.33;15.07;;;-2.40;99.90;;;;;;5090864;28;20044;-88
2022/12/14 00:39:36;;;;;;;30.88;15.27;;;-2.40;99.90;;;;;;5091405;28;20100;-87
2022/12/14 00:42:01;;;;;;;32.95;17.17;;;-2.40;99.90;;;;;;5074790;28;20055;-87
2022/12/14 00:44:27;;;;;;;28.23;16.10;;;-2.50;99.90;;;;;;5091419;28;20040;-88
2022/12/14 00:46:52;;;;;;;30.13;15.13;;;-2.50;99.90;;;;;;5091415;28;20044;-88
2022/12/14 00:49:18;;;;;;;30.77;15.85;;;-2.50;99.90;;;;;;5091294;28;20040;-88
2022/12/14 00:51:43;;;;;;;29.80;15.50;;;-2.50;99.90;;;;;;5091204;28;20451;-88
2022/12/14 00:54:09;;;;;;;32.00;14.57;;;-2.50;99.90;;;;;;5091164;28;20036;-88
2022/12/14 00:56:35;;;;;;;32.13;15.00;;;-2.50;99.90;;;;;;5091343;28;20036;-88
2022/12/14 00:59:00;;;;;;;30.13;14.25;;;-2.50;99.90;;;;;;5074161;28;20090;-88
2022/12/14 01:01:26;;;;;;;33.22;15.93;;;-2.60;99.90;;;;;;5074449;28;20036;-87
2022/12/14 01:04:15;;;;;;;27.00;15.00;;;-2.60;99.90;;;;;;5090880;28;20071;-88
2022/12/14 01:06:37;;;;;;;33.83;15.95;;;-2.60;99.90;;;;;;5091008;28;20051;-87
2022/12/14 01:09:03;;;;;;;30.60;14.30;;;-2.60;99.90;;;;;;5091006;28;20044;-88
2022/12/14 01:11:28;;;;;;;33.30;16.33;;;-2.60;99.90;;;;;;5074423;28;20036;-88
2022/12/14 01:13:55;;;;;;;30.92;15.55;;;-2.60;99.90;;;;;;5091037;28;20131;-88
2022/12/14 01:16:20;;;;;;;26.05;14.02;;;-2.60;99.90;;;;;;5091069;28;20100;-87
2022/12/14 01:18:46;;;;;;;32.40;15.75;;;-2.60;99.90;;;;;;5074061;28;20511;-88
2022/12/14 01:21:21;;;;;;;28.75;14.27;;;-2.60;99.90;;;;;;5091159;28;20036;-88
2022/12/14 01:23:50;;;;;;;30.80;14.07;;;-2.70;99.90;;;;;;5073774;28;20048;-88
2022/12/14 01:26:16;;;;;;;30.75;14.25;;;-2.70;99.90;;;;;;5091012;28;20130;-88
2022/12/14 01:28:42;;;;;;;29.95;15.95;;;-2.70;99.90;;;;;;5090759;28;20131;-88
2022/12/14 01:31:16;;;;;;;30.63;14.18;;;-2.70;99.90;;;;;;5091023;28;20123;-88
2022/12/14 01:33:42;;;;;;;34.10;15.60;;;-2.70;99.90;;;;;;5090571;28;20036;-87
2022/12/14 01:36:11;;;;;;;34.97;15.52;;;-2.70;99.90;;;;;;5090945;28;20595;-87
2022/12/14 01:38:36;;;;;;;33.33;16.60;;;-2.70;99.90;;;;;;5090577;28;20047;-88
2022/12/14 01:41:03;;;;;;;30.70;16.23;;;-2.80;99.90;;;;;;5090759;28;20040;-88
2022/12/14 01:44:07;;;;;;;30.92;15.07;;;-2.80;99.90;;;;;;5090649;28;20398;-88
2022/12/14 01:46:58;;;;;;;;;;;-2.80;99.90;;;;;;4977376;28;20101;-87
2022/12/14 01:49:39;;;;;;;29.20;13.38;;;-2.80;99.90;;;;;;5068923;28;19961;-88
2022/12/14 01:52:32;;;;;;;30.75;14.82;;;-2.80;99.90;;;;;;5090168;28;20044;-87
2022/12/14 01:55:01;;;;;;;29.00;14.07;;;-2.80;99.90;;;;;;5073683;28;20386;-88
2022/12/14 01:57:32;;;;;;;39.05;18.80;;;-2.80;99.90;;;;;;5073618;28;20075;-88
2022/12/14 01:59:59;;;;;;;30.10;16.15;;;-2.90;99.90;;;;;;5073668;28;20036;-88
2022/12/14 02:02:26;;;;;;;29.45;15.82;;;-2.90;99.90;;;;;;5090337;28;20032;-87
2022/12/14 02:04:58;;;;;;;31.63;15.73;;;-2.90;99.90;;;;;;5090452;28;20050;-88
2022/12/14 02:07:26;;;;;;;30.73;14.98;;;-3.00;99.90;;;;;;5073668;28;20513;-88
2022/12/14 02:09:54;;;;;;;30.67;15.45;;;-3.00;99.90;;;;;;5073320;28;20166;-87
2022/12/14 02:12:27;;;;;;;28.25;14.52;;;-3.10;99.90;;;;;;5089898;28;20101;-88
2022/12/14 02:14:54;;;;;;;31.60;14.07;;;-3.10;99.90;;;;;;5090426;28;20032;-88
2022/12/14 02:17:20;;;;;;;30.13;14.63;;;-3.10;99.90;;;;;;5073350;28;20048;-87
2022/12/14 02:19:48;;;;;;;27.75;14.40;;;-3.10;99.90;;;;;;5073619;28;20040;-87
2022/12/14 02:23:03;;;;;;;32.60;16.17;;;-3.10;99.90;;;;;;5072976;28;20032;-87
2022/12/14 02:25:46;;;;;;;35.60;16.25;;;-3.20;99.90;;;;;;5090261;28;20378;-87
2022/12/14 02:28:52;;;;;;;31.40;15.75;;;-3.20;99.90;;;;;;5090073;28;20512;-87
2022/12/14 02:31:32;;;;;;;28.95;15.15;;;-3.20;99.90;;;;;;5090079;28;20036;-88
2022/12/14 02:34:25;;;;;;;26.92;12.57;;;-3.20;99.90;;;;;;5090144;28;20032;-88
2022/12/14 02:36:57;;;;;;;28.48;13.80;;;-3.20;99.90;;;;;;5090225;28;20094;-88
2022/12/14 02:39:38;;;;;;;28.92;13.27;;;-3.20;99.90;;;;;;5090095;28;20118;-88
2022/12/14 02:42:15;;;;;;;29.30;13.95;;;-3.30;99.90;;;;;;5073016;28;20040;-88
2022/12/14 02:45:26;;;;;;;31.60;15.95;;;-3.30;99.90;;;;;;5090121;28;20047;-87
2022/12/14 02:48:01;;;;;;;32.90;16.70;;;-3.30;99.90;;;;;;5085080;28;20070;-88
2022/12/14 02:51:06;;;;;;;33.35;20.88;;;-3.40;99.90;;;;;;5073213;28;20484;-87
2022/12/14 02:54:01;;;;;;;38.33;18.42;;;-3.40;99.90;;;;;;5072620;28;20039;-87
2022/12/14 02:56:36;;;;;;;32.88;15.13;;;-3.50;99.90;;;;;;5073100;28;20032;-87
2022/12/14 02:59:05;;;;;;;30.13;15.70;;;-3.50;99.90;;;;;;5089882;28;20036;-88
2022/12/14 03:01:31;;;;;;;32.17;15.48;;;-3.60;99.90;;;;;;5092089;28;20097;-87
2022/12/14 03:03:57;;;;;;;31.45;14.93;;;-3.60;99.90;;;;;;5093490;28;20393;-87
2022/12/14 03:06:27;;;;;;;29.45;14.80;;;-3.70;99.90;;;;;;5076647;28;20047;-88
2022/12/14 03:09:01;;;;;;;28.75;14.25;;;-3.70;99.90;;;;;;5093675;28;20515;-87
2022/12/14 03:11:33;;;;;;;31.48;13.80;;;-3.70;99.90;;;;;;5076547;28;20165;-88
2022/12/14 03:14:26;;;;;;;34.35;15.43;;;-3.70;99.90;;;;;;5076282;28;20047;-88
2022/12/14 03:16:55;;;;;;;25.67;11.88;;;-3.80;99.90;;;;;;5093195;28;20121;-88
2022/12/14 03:19:36;;;;;;;30.70;14.25;;;-3.80;99.90;;;;;;5076302;28;20046;-88
2022/12/14 03:22:16;;;;;;;29.35;12.75;;;-3.90;99.90;;;;;;5076160;28;20040;-88
2022/12/14 03:24:51;;;;;;;26.33;11.50;;;-3.90;99.90;;;;;;5093118;28;20044;-87
2022/12/14 03:27:26;;;;;;;24.25;11.07;;;-4.00;99.90;;;;;;5093382;28;20079;-88
2022/12/14 03:30:08;;;;;;;24.80;11.63;;;-4.00;99.90;;;;;;5076123;28;20036;-88
2022/12/14 03:32:38;;;;;;;25.17;11.23;;;-4.10;99.90;;;;;;5075994;28;20036;-88
2022/12/14 03:35:09;;;;;;;28.45;12.73;;;-4.20;99.90;;;;;;5092917;28;20086;-87
2022/12/14 03:37:47;;;;;;;27.35;12.38;;;-4.30;99.90;;;;;;5093249;28;20558;-88
2022/12/14 03:40:14;;;;;;;31.85;14.57;;;-4.30;99.90;;;;;;5093129;28;20122;-88
2022/12/14 03:43:18;;;;;;;32.17;15.27;;;-4.30;99.90;;;;;;5075681;28;20448;-88
2022/12/14 03:46:11;;;;;;;28.95;12.88;;;-4.30;99.90;;;;;;5058331;28;20086;-88
2022/12/14 03:48:46;;;;;;;32.20;17.23;;;-4.20;99.90;;;;;;5082561;28;20048;-88
2022/12/14 03:51:18;;;;;;;31.05;17.23;;;-4.20;99.90;;;;;;5075836;28;20166;-88
2022/12/14 03:54:11;;;;;;;30.53;15.53;;;-4.20;99.90;;;;;;5092547;28;20047;-88
2022/12/14 03:56:39;;;;;;;25.33;12.57;;;-4.20;99.90;;;;;;5074647;28;20409;-88
2022/12/14 03:59:23;;;;;;;29.10;14.43;;;-4.20;99.90;;;;;;5075895;28;20042;-88
2022/12/14 04:01:49;;;;;;;31.73;15.63;;;-4.10;99.90;;;;;;5075442;28;20179;-88
2022/12/14 04:04:30;;;;;;;33.08;16.45;;;-4.10;99.90;;;;;;5092144;28;20159;-88
2022/12/14 04:07:21;;;;;;;29.98;14.52;;;-4.10;99.90;;;;;;5075571;28;20036;-88
2022/12/14 04:09:59;;;;;;;25.67;11.68;;;-4.10;99.90;;;;;;5075367;28;20097;-88
2022/12/14 04:21:23;;;;;;;36.80;21.63;;;-4.30;99.90;;;;;;5091959;28;20409;-88
2022/12/14 04:26:44;;;;;;;36.72;20.73;;;-4.30;99.90;;;;;;5091990;28;20127;-87
2022/12/14 04:32:05;;;;;;;34.67;20.40;;;-4.40;99.90;;;;;;5091550;28;20040;-87
2022/12/14 04:34:33;;;;;;;33.05;20.58;;;-4.40;99.90;;;;;;5091995;28;20132;-88
2022/12/14 04:37:01;;;;;;;30.65;15.55;;;-4.50;99.90;;;;;;5091815;28;20400;-88
2022/12/14 04:39:43;;;;;;;26.75;12.43;;;-4.50;99.90;;;;;;5091782;28;20162;-88
2022/12/14 04:42:10;;;;;;;31.10;13.80;;;-4.50;99.90;;;;;;5091424;28;20044;-88
2022/12/14 04:44:41;;;;;;;28.88;14.05;;;-4.50;99.90;;;;;;5092010;28;20432;-88
2022/12/14 04:47:09;;;;;;;25.65;12.80;;;-4.50;99.90;;;;;;5091510;28;20067;-88
2022/12/14 04:49:55;;;;;;;29.90;14.25;;;-4.60;99.90;;;;;;5091623;28;20040;-88
2022/12/14 04:52:33;;;;;;;26.08;13.50;;;-4.60;99.90;;;;;;5074316;28;20097;-88
2022/12/14 04:55:03;;;;;;;32.53;13.05;;;-4.70;99.90;;;;;;5091582;28;20047;-88
2022/12/14 04:57:39;;;;;;;29.00;13.80;;;-4.70;99.90;;;;;;5091367;28;20072;-88
2022/12/14 05:00:05;;;;;;;25.27;12.20;;;-4.70;99.90;;;;;;5091450;28;20082;-88
2022/12/14 05:02:49;;;;;;;24.75;11.93;;;-4.80;99.90;;;;;;5074142;28;20051;-88
2022/12/14 05:05:24;;;;;;;27.40;13.13;;;-4.90;99.90;;;;;;5091316;28;20044;-88
2022/12/14 05:08:11;;;;;;;27.02;13.32;;;-4.90;99.90;;;;;;5091269;28;20043;-88
2022/12/14 05:10:41;;;;;;;31.92;15.00;;;-4.90;99.90;;;;;;5074504;28;20044;-87
2022/12/14 05:13:21;;;;;;;26.98;12.38;;;-4.90;99.90;;;;;;5074143;28;20039;-87
2022/12/14 05:15:57;;;;;;;26.35;14.27;;;-4.90;99.90;;;;;;5091183;28;20481;-87
2022/12/14 05:18:23;;;;;;;28.65;15.50;;;-4.90;99.90;;;;;;5074226;28;20032;-88
2022/12/14 05:20:49;;;;;;;28.17;13.90;;;-4.90;99.90;;;;;;5091418;28;20035;-88
2022/12/14 05:23:15;;;;;;;32.08;14.85;;;-4.90;99.90;;;;;;5073489;28;20046;-88
2022/12/14 05:25:41;;;;;;;34.28;13.45;;;-4.90;99.90;;;;;;5091342;28;20043;-88
2022/12/14 05:28:09;;;;;;;26.98;12.70;;;-4.90;99.90;;;;;;5090715;28;20036;-87
2022/12/14 05:30:34;;;;;;;23.60;11.07;;;-4.90;99.90;;;;;;5090837;28;20040;-87
2022/12/14 05:33:00;;;;;;;25.75;12.07;;;-4.90;99.90;;;;;;5090761;28;20040;-87
2022/12/14 05:35:25;;;;;;;26.50;12.05;;;-5.00;99.90;;;;;;5090915;28;20058;-88
2022/12/14 05:37:51;;;;;;;29.52;13.00;;;-5.00;99.90;;;;;;5073967;28;20036;-88
2022/12/14 05:40:17;;;;;;;31.30;14.68;;;-5.00;99.90;;;;;;5091072;28;20052;-88
2022/12/14 05:42:42;;;;;;;25.05;11.68;;;-5.00;99.90;;;;;;5073253;28;20036;-88
2022/12/14 05:45:12;;;;;;;25.88;12.13;;;-5.10;99.90;;;;;;5090856;28;20036;-88
2022/12/14 05:47:38;;;;;;;28.55;12.38;;;-5.10;99.90;;;;;;5074156;28;20032;-88
2022/12/14 05:50:05;;;;;;;24.73;10.98;;;-5.10;99.90;;;;;;5073983;28;20040;-88
2022/12/14 05:52:30;;;;;;;21.30;11.05;;;-5.10;99.90;;;;;;5090286;28;20044;-87
2022/12/14 05:54:56;;;;;;;33.28;14.88;;;-5.10;99.90;;;;;;5090666;28;20089;-88
2022/12/14 05:57:21;;;;;;;27.63;11.48;;;-5.10;99.90;;;;;;5073890;28;20032;-88
2022/12/14 05:59:47;;;;;;;29.23;12.57;;;-5.10;99.90;;;;;;5090492;28;20036;-87
2022/12/14 06:02:13;;;;;;;24.10;12.05;;;-5.10;99.90;;;;;;5090133;28;20070;-88
2022/12/14 06:04:38;;;;;;;27.42;14.40;;;-5.10;99.90;;;;;;5090589;28;20113;-87
2022/12/14 06:07:04;;;;;;;33.60;14.73;;;-5.10;99.90;;;;;;5090079;28;20032;-87
2022/12/14 06:09:30;;;;;;;26.88;12.95;;;-5.10;99.90;;;;;;5073091;28;20036;-88
2022/12/14 06:11:55;;;;;;;31.25;14.52;;;-5.10;99.90;;;;;;5090203;28;20409;-88
2022/12/14 06:14:23;;;;;;;33.05;14.73;;;-5.10;99.90;;;;;;5073370;28;20047;-87
2022/12/14 06:16:48;;;;;;;27.17;14.18;;;-5.20;99.90;;;;;;5073531;28;20405;-87
2022/12/14 06:19:14;;;;;;;29.98;12.88;;;-5.20;99.90;;;;;;5090364;28;20044;-88
2022/12/14 06:21:41;;;;;;;27.52;12.70;;;-5.20;99.90;;;;;;5090051;28;20048;-87
2022/12/14 06:24:10;;;;;;;23.15;11.73;;;-5.30;99.90;;;;;;5072638;28;20040;-88
2022/12/14 06:26:36;;;;;;;27.73;11.93;;;-5.30;99.90;;;;;;5089909;28;20509;-88
2022/12/14 06:29:02;;;;;;;25.92;12.65;;;-5.30;99.90;;;;;;5073259;28;20387;-88
2022/12/14 06:31:30;;;;;;;25.67;11.05;;;-5.40;99.90;;;;;;5070223;28;20036;-88
2022/12/14 06:33:58;;;;;;;25.58;12.18;;;-5.30;99.90;;;;;;5070182;28;20405;-88
2022/12/14 06:36:26;;;;;;;24.30;10.93;;;-5.40;99.90;;;;;;5088700;28;20607;-88
2022/12/14 06:38:58;;;;;;;25.80;13.32;;;-5.40;99.90;;;;;;5073722;28;20036;-87
2022/12/14 06:41:24;;;;;;;25.65;12.98;;;-5.40;99.90;;;;;;5090730;28;20494;-88
2022/12/14 06:43:50;;;;;;;26.55;11.68;;;-5.40;99.90;;;;;;5073766;28;20049;-88
2022/12/14 06:46:18;;;;;;;26.10;11.38;;;-5.40;99.90;;;;;;5090484;28;20490;-88
2022/12/14 06:48:51;;;;;;;28.05;13.35;;;-5.40;99.90;;;;;;5090600;28;20041;-87
2022/12/14 06:51:17;;;;;;;26.27;13.30;;;-5.50;99.90;;;;;;5093170;28;20040;-87
2022/12/14 06:53:43;;;;;;;29.70;13.63;;;-5.50;99.90;;;;;;5073152;28;20111;-86
2022/12/14 06:56:11;;;;;;;26.10;11.75;;;-5.50;99.90;;;;;;5090103;28;20067;-87
2022/12/14 06:58:37;;;;;;;27.52;12.20;;;-5.50;99.90;;;;;;5096317;28;20043;-86
2022/12/14 07:01:05;;;;;;;28.15;12.30;;;-5.50;99.90;;;;;;5076607;28;20070;-87
2022/12/14 07:03:30;;;;;;;24.95;11.90;;;-5.50;99.90;;;;;;5076293;28;20043;-87
2022/12/14 07:05:57;;;;;;;28.92;13.70;;;-5.50;99.90;;;;;;5106612;28;20040;-87
2022/12/14 07:08:25;;;;;;;30.02;13.68;;;-5.60;99.90;;;;;;5098195;28;20040;-87
2022/12/14 07:10:51;;;;;;;25.08;11.13;;;-5.50;99.90;;;;;;5117947;27;20314;-87
2022/12/14 07:13:17;;;;;;;30.63;15.45;;;-5.60;99.90;;;;;;5101567;27;20038;-88
2022/12/14 07:15:43;;;;;;;32.10;15.35;;;-5.50;99.90;;;;;;5093037;28;20115;-88
2022/12/14 07:18:09;;;;;;;29.77;16.17;;;-5.60;99.90;;;;;;5109564;28;20036;-88
2022/12/14 07:20:34;;;;;;;28.77;12.60;;;-5.60;99.90;;;;;;5107202;28;20143;-88
2022/12/14 07:23:00;;;;;;;26.48;12.35;;;-5.60;99.90;;;;;;5093354;28;20170;-88
2022/12/14 07:25:26;;;;;;;29.70;14.00;;;-5.70;99.90;;;;;;5093214;28;20094;-88
2022/12/14 07:27:51;;;;;;;32.22;15.07;;;-5.70;99.90;;;;;;5093216;28;20075;-88
2022/12/14 07:30:17;;;;;;;31.42;13.10;;;-5.70;99.90;;;;;;5110261;28;20032;-89
2022/12/14 07:32:42;;;;;;;30.60;14.10;;;-5.70;99.90;;;;;;5124839;27;20048;-89
2022/12/14 07:35:08;;;;;;;30.60;14.23;;;-5.70;99.90;;;;;;5092791;28;20028;-89
2022/12/14 07:37:34;;;;;;;31.80;15.50;;;-5.70;99.90;;;;;;5092743;28;20032;-88
2022/12/14 07:39:59;;;;;;;28.55;13.93;;;-5.70;99.90;;;;;;5092519;28;20493;-88
2022/12/14 07:42:25;;;;;;;24.08;12.32;;;-5.80;99.90;;;;;;5109311;28;20040;-87
2022/12/14 07:44:50;;;;;;;25.25;13.57;;;-5.80;99.90;;;;;;5093119;28;20040;-87
2022/12/14 07:47:16;;;;;;;27.75;13.18;;;-5.80;99.90;;;;;;5126515;27;20425;-87
2022/12/14 07:49:42;;;;;;;24.05;12.38;;;-5.80;99.90;;;;;;5092904;28;20036;-87
2022/12/14 07:52:08;;;;;;;29.05;13.10;;;-5.80;99.90;;;;;;5092351;28;20123;-87
2022/12/14 07:54:33;;;;;;;25.02;11.88;;;-5.80;99.90;;;;;;5121879;27;20076;-88
2022/12/14 07:56:59;;;;;;;28.50;14.95;;;-5.80;99.90;;;;;;5117440;27;20032;-88
2022/12/14 07:59:25;;;;;;;27.02;14.35;;;-5.80;99.90;;;;;;5126592;27;20114;-88
2022/12/14 08:01:52;;;;;;;28.00;13.00;;;-5.70;99.90;;;;;;5092784;28;20051;-88
2022/12/14 08:04:18;;;;;;;31.10;14.25;;;-5.70;99.90;;;;;;5109475;28;20076;-88
2022/12/14 08:06:48;;;;;;;26.58;13.05;;;-5.70;99.90;;;;;;5092473;28;20047;-88
2022/12/14 08:09:14;;;;;;;31.52;13.15;;;-5.70;99.90;;;;;;5092131;28;20036;-88
2022/12/14 08:11:40;;;;;;;32.97;12.20;;;-5.70;99.90;;;;;;5074525;28;20036;-88
2022/12/14 08:14:10;;;;;;;31.87;12.07;;;-5.70;99.90;;;;;;5092231;28;20405;-88
2022/12/14 08:16:36;;;;;;;19.87;10.63;;;-5.60;99.90;;;;;;5083257;28;20119;-87
2022/12/14 08:19:01;;;;;;;25.90;10.40;;;-5.70;99.90;;;;;;5071325;28;20145;-88
2022/12/14 08:21:27;;;;;;;25.83;12.27;;;-5.60;99.90;;;;;;5072868;28;20512;-88
2022/12/14 08:23:54;;;;;;;28.30;12.90;;;-5.60;99.90;;;;;;5088424;28;20044;-87
2022/12/14 08:26:21;;;;;;;29.33;13.00;;;-5.70;99.90;;;;;;5088461;28;20405;-88
2022/12/14 08:28:47;;;;;;;25.20;12.70;;;-5.60;99.90;;;;;;5071466;28;20078;-87
2022/12/14 08:31:15;;;;;;;25.75;11.77;;;-5.60;99.90;;;;;;5071683;28;20435;-88
2022/12/14 08:33:43;;;;;;;25.73;11.57;;;-5.60;99.90;;;;;;5071658;28;20182;-87
2022/12/14 08:36:17;;;;;;;25.55;11.93;;;-5.60;99.90;;;;;;5081675;28;20150;-87
2022/12/14 08:38:43;;;;;;;25.30;11.27;;;-5.60;99.90;;;;;;5107394;28;20404;-87
2022/12/14 08:41:11;;;;;;;27.02;12.35;;;-5.60;99.90;;;;;;5109363;28;20088;-87
2022/12/14 08:43:37;;;;;;;27.40;13.27;;;-5.60;99.90;;;;;;5089985;28;20067;-87
2022/12/14 08:46:04;;;;;;;27.35;15.02;;;-5.50;99.90;;;;;;5109387;28;20062;-88
2022/12/14 08:48:30;;;;;;;29.45;13.45;;;-5.50;99.90;;;;;;5089041;28;20048;-87
2022/12/14 08:51:04;;;;;;;25.45;12.35;;;-5.50;99.90;;;;;;5109638;28;20035;-87
2022/12/14 08:53:29;;;;;;;27.35;13.73;;;-5.40;99.90;;;;;;5083883;28;20028;-88
2022/12/14 08:55:55;;;;;;;27.17;11.93;;;-5.40;99.90;;;;;;5109276;28;20042;-87
2022/12/14 08:58:21;;;;;;;24.97;11.60;;;-5.30;99.90;;;;;;5109203;28;20395;-87
2022/12/14 09:00:46;;;;;;;26.27;12.48;;;-5.30;99.90;;;;;;5105898;28;20054;-88
2022/12/14 09:03:12;;;;;;;26.90;11.63;;;-5.30;99.90;;;;;;5092473;28;20399;-88
2022/12/14 09:05:37;;;;;;;28.80;11.67;;;-5.30;99.90;;;;;;5091979;28;20051;-87
2022/12/14 09:08:03;;;;;;;26.27;12.70;;;-5.20;99.90;;;;;;5091641;28;20054;-87
2022/12/14 09:10:29;;;;;;;30.50;13.63;;;-5.10;99.90;;;;;;5092415;28;20047;-87
2022/12/14 09:12:55;;;;;;;24.08;11.02;;;-5.10;99.90;;;;;;5089431;28;20040;-88
2022/12/14 09:15:20;;;;;;;24.73;11.55;;;-5.00;99.90;;;;;;5090877;28;20075;-87
2022/12/14 09:17:48;;;;;;;26.25;11.88;;;-4.90;99.90;;;;;;5090514;28;20516;-87
2022/12/14 09:20:14;;;;;;;31.80;15.00;;;-4.80;99.90;;;;;;5106076;28;20035;-88
2022/12/14 09:22:39;;;;;;;26.90;13.77;;;-4.70;99.90;;;;;;5071643;28;20501;-87
2022/12/14 09:25:05;;;;;;;25.92;14.07;;;-4.70;99.90;;;;;;5099536;28;20044;-87
2022/12/14 09:27:32;;;;;;;33.92;15.50;;;-4.50;99.90;;;;;;5109370;28;20035;-88
2022/12/14 09:29:57;;;;;;;29.75;13.38;;;-4.50;99.90;;;;;;5089158;28;20032;-87
2022/12/14 09:32:23;;;;;;;23.80;11.20;;;-4.40;99.90;;;;;;5105868;28;20042;-89
2022/12/14 09:34:49;;;;;;;26.52;14.05;;;-4.30;99.90;;;;;;5108270;28;20032;-87
2022/12/14 09:37:14;;;;;;;26.30;11.80;;;-4.20;99.90;;;;;;5105793;28;20051;-87
2022/12/14 09:39:40;;;;;;;26.33;12.77;;;-4.10;99.90;;;;;;5092801;28;20039;-87
2022/12/14 09:42:38;;;;;;;30.42;13.05;;;-4.00;99.90;;;;;;5088016;28;20123;-87
2022/12/14 09:45:23;;;;;;;25.30;13.30;;;-3.90;99.90;;;;;;5068374;28;20131;-88
2022/12/14 09:48:01;;;;;;;32.92;13.77;;;-3.80;99.90;;;;;;5079221;28;20036;-87
2022/12/14 09:50:28;;;;;;;26.50;13.30;;;-3.70;99.90;;;;;;5091111;28;20046;-88
2022/12/14 09:52:56;;;;;;;32.28;16.48;;;-3.70;99.90;;;;;;5090737;28;20039;-88
2022/12/14 09:55:37;;;;;;;33.20;15.38;;;-3.60;99.90;;;;;;5100288;28;20039;-87
2022/12/14 09:58:19;;;;;;;29.45;14.00;;;-3.50;99.90;;;;;;5084094;28;20090;-87
2022/12/14 10:01:02;;;;;;;30.20;14.13;;;-3.40;99.90;;;;;;5094116;28;20040;-87
2022/12/14 10:04:05;;;;;;;26.42;13.30;;;-3.30;99.90;;;;;;5083388;28;20681;-87
2022/12/14 10:07:15;;;;;;;32.38;12.90;;;-3.20;99.90;;;;;;5091021;28;20051;-87
2022/12/14 10:10:17;;;;;;;25.55;12.52;;;-3.10;99.90;;;;;;5057914;28;20049;-88
2022/12/14 10:13:06;;;;;;;30.87;11.83;;;-2.90;99.90;;;;;;5092321;28;20028;-87
2022/12/14 10:15:47;;;;;;;27.58;12.05;;;-2.80;99.90;;;;;;5107816;28;20046;-88
2022/12/14 10:18:37;;;;;;;34.05;15.52;;;-2.70;99.90;;;;;;5095679;28;20032;-88
2022/12/14 10:21:13;;;;;;;27.40;13.48;;;-2.50;99.90;;;;;;5066456;28;20068;-88
2022/12/14 10:24:02;;;;;;;24.88;11.95;;;-2.40;99.90;;;;;;5063356;28;20122;-87
2022/12/14 10:26:42;;;;;;;31.52;13.88;;;-2.30;99.90;;;;;;5068331;28;20405;-87
2022/12/14 10:29:19;;;;;;;23.88;11.52;;;-2.20;99.90;;;;;;5087650;28;20413;-87
2022/12/14 10:32:03;;;;;;;29.05;12.43;;;-2.00;99.90;;;;;;5098767;28;20211;-88
2022/12/14 10:34:30;;;;;;;27.88;13.18;;;-1.90;99.90;;;;;;5109704;28;20472;-88
2022/12/14 10:37:13;;;;;;;25.98;13.55;;;-1.70;99.90;;;;;;5111137;28;20035;-87
2022/12/14 10:40:03;;;;;;;25.40;13.52;;;-1.50;99.90;;;;;;5093192;28;20150;-88
2022/12/14 10:43:06;;;;;;;29.10;13.88;;;-1.40;99.90;;;;;;5112353;28;20447;-87
2022/12/14 10:45:57;;;;;;;32.10;14.43;;;-1.20;99.90;;;;;;5091596;28;20476;-87
2022/12/14 10:48:47;;;;;;;29.65;14.05;;;-1.00;99.90;;;;;;5112126;28;20398;-87
2022/12/14 10:51:36;;;;;;;27.70;13.38;;;-0.80;99.90;;;;;;5076256;28;20032;-88
2022/12/14 10:54:28;;;;;;;28.38;13.18;;;-0.60;99.90;;;;;;5074674;28;20048;-88
2022/12/14 10:56:54;;;;;;;27.65;13.88;;;-0.50;99.90;;;;;;5085641;28;20032;-88
2022/12/14 10:59:20;;;;;;;27.05;14.10;;;-0.30;99.90;;;;;;5094518;28;20039;-88
2022/12/14 11:01:48;;;;;;;30.60;13.85;;;-0.10;99.90;;;;;;5095516;28;20417;-86
2022/12/14 11:04:37;;;;;;;27.88;14.15;;;0.00;99.90;;;;;;5091292;28;20034;-87
2022/12/14 11:07:09;;;;;;;28.05;13.65;;;0.20;99.90;;;;;;5090850;28;20035;-88
2022/12/14 11:09:36;;;;;;;32.03;13.80;;;0.30;99.90;;;;;;5090375;28;20036;-88
2022/12/14 11:12:05;;;;;;;27.13;14.27;;;0.40;99.90;;;;;;5107428;28;20066;-88
2022/12/14 11:14:31;;;;;;;27.83;13.77;;;0.50;99.90;;;;;;5074240;28;20046;-87
2022/12/14 11:16:57;;;;;;;28.52;13.10;;;0.70;99.90;;;;;;5097370;28;20035;-88
2022/12/14 11:19:24;;;;;;;29.25;13.25;;;0.80;99.90;;;;;;5093477;28;20089;-87
2022/12/14 11:22:03;;;;;;;27.58;13.40;;;1.00;99.90;;;;;;5090255;28;20044;-88
2022/12/14 11:24:29;;;;;;;24.30;12.15;;;1.20;99.90;;;;;;5079114;28;20028;-88
2022/12/14 11:27:01;;;;;;;25.10;12.23;;;1.40;99.90;;;;;;5074893;28;20040;-88
2022/12/14 11:29:31;;;;;;;23.52;11.75;;;1.60;99.90;;;;;;5079426;28;20036;-87
2022/12/14 11:31:57;;;;;;;22.02;10.63;;;1.80;99.90;;;;;;5110976;28;20040;-87
2022/12/14 11:34:53;;;;;;;23.30;10.30;;;2.10;99.90;;;;;;5094512;28;20035;-87
2022/12/14 11:37:30;;;;;;;22.92;10.85;;;2.30;99.90;;;;;;5104577;28;20059;-87
2022/12/14 11:40:02;;;;;;;21.48;11.35;;;2.70;99.90;;;;;;5110843;28;20093;-87
2022/12/14 11:42:29;;;;;;;23.13;11.02;;;2.80;99.90;;;;;;5109165;28;20047;-87
2022/12/14 11:45:24;;;;;;;21.85;10.73;;;3.00;99.90;;;;;;5111805;28;20090;-87
2022/12/14 11:48:28;;;;;;;23.10;11.45;;;3.20;97.40;;;;;;5090857;28;20043;-87
2022/12/14 11:51:09;;;;;;;21.85;11.48;;;3.70;99.00;;;;;;5013312;28;20041;-87
2022/12/14 11:53:35;;;;;;;22.00;10.60;;;4.30;99.20;;;;;;5007880;28;20049;-88
2022/12/14 11:56:05;;;;;;;23.40;11.70;;;4.90;96.70;;;;;;5051570;28;20101;-87
2022/12/14 11:58:34;;;;;;;29.83;14.77;;;5.90;95.00;;;;;;5079574;28;20043;-89
2022/12/14 12:01:02;;;;;;;24.52;12.68;;;7.10;91.00;;;;;;5074572;28;20043;-88
2022/12/14 12:03:43;;;;;;;24.83;13.10;;;8.40;86.20;;;;;;5105578;28;20043;-88
2022/12/14 12:06:13;;;;;;;23.27;12.85;;;9.40;81.60;;;;;;5094360;28;20566;-88
2022/12/14 12:08:41;;;;;;;24.75;13.80;;;10.00;77.90;;;;;;5092162;28;20035;-88
2022/12/14 12:11:18;;;;;;;24.10;13.18;;;10.60;76.60;;;;;;5106262;28;20535;-88
2022/12/14 12:13:46;;;;;;;24.38;14.32;;;11.60;76.40;;;;;;5093602;28;20055;-88
2022/12/14 12:16:13;;;;;;;22.17;14.32;;;12.50;74.50;;;;;;5086305;28;20067;-89
2022/12/14 12:18:53;;;;;;;22.02;14.23;;;13.50;71.50;;;;;;5094043;28;20104;-89
2022/12/14 12:21:25;;;;;;;22.77;16.13;;;14.70;67.30;;;;;;5094187;28;20039;-88
2022/12/14 12:24:00;;;;;;;21.92;17.02;;;15.80;64.50;;;;;;5108324;28;20101;-89
2022/12/14 12:26:40;;;;;;;21.88;18.08;;;16.70;60.30;;;;;;5094221;28;20099;-89
2022/12/14 12:29:15;;;;;;;23.30;19.60;;;17.50;56.90;;;;;;5093735;28;20557;-89
2022/12/14 12:31:52;;;;;;;20.48;17.05;;;18.20;54.10;;;;;;5089868;28;20125;-90
2022/12/14 12:34:32;;;;;;;20.05;17.33;;;18.50;52.90;;;;;;5091869;28;20031;-89
2022/12/14 12:37:01;;;;;;;20.23;16.33;;;18.80;50.80;;;;;;5070718;28;20032;-90
2022/12/14 12:39:30;;;;;;;19.92;16.92;;;19.00;51.00;;;;;;5076871;28;20130;-90
2022/12/14 12:42:17;;;;;;;19.45;16.58;;;19.40;49.30;;;;;;5089199;28;20068;-90
2022/12/14 12:45:05;;;;;;;18.88;15.77;;;20.00;47.20;;;;;;5070644;28;20086;-90
2022/12/14 12:47:39;;;;;;;21.10;16.40;;;20.80;46.10;;;;;;5100624;28;20114;-90
2022/12/14 12:50:22;;;;;;;18.30;15.52;;;21.50;44.90;;;;;;5110350;28;20039;-90
2022/12/14 12:53:03;;;;;;;19.35;16.30;;;21.90;43.30;;;;;;5090720;28;20059;-90
2022/12/14 12:56:03;;;;;;;18.25;16.35;;;21.90;42.90;;;;;;5138157;27;1400809;-89
2022/12/14 12:58:32;;;;;;;18.75;15.82;;;22.10;41.60;;;;;;5145895;27;20419;-89
2022/12/14 13:01:03;;;;;;;19.38;16.27;;;22.40;41.90;;;;;;5113048;27;20715;-89
2022/12/14 13:03:36;;;;;;;19.30;15.20;;;22.80;40.50;;;;;;5112527;27;20049;-89
2022/12/14 13:06:24;;;;;;;17.92;15.43;;;23.10;39.50;;;;;;5096363;28;20057;-89
2022/12/14 13:08:59;;;;;;;17.48;14.32;;;23.40;38.90;;;;;;5079604;27;20127;-89